Flight ASX314X

  • Submitted By: Lukasz Przybylak
  • Departure Airport: Rzeszow Jasionka (EPRZ)
  • Arrival Airport: Gdansk im. Lecha Walesy (EPGD)
  • Aircraft: KING AIR 350 (SP-DBL)
  • Flight Time: 01.45.04
  • Date Submitted: 09/08/2017
  • Route: VELAX Q258 UREKO L621 RILAB T270 OSLOG
  • Status: Accepted
Flight Details
Gross Revenue:
(8 load / € 95.00 per unit
€ 760.00
Fuel Cost:
(416.398 fuel used @ 0.45 / unit)
€ 187.38

Additional Log Information:

View Log

[03:55] - CARENADO B350i King Air 5003
[03:55] - Flight ASX314X is ready to depart EPRZ with a final destination of EPGD.
[03:55] - Parking Brake Applied
[03:55] - Navigation Lights ON
[03:55] - Beacon Light ON
[03:55] - Instrument Lights ON
[03:55] - Boarding
[03:55] - ADF1 - 284.0
[03:55] - ADF2 - 240.0
[03:55] - NAV1 - 113.70
[03:55] - NAV2 - 110.60
[03:55] - COM1 - 128.30
[03:55] - COM2 - 127.80
[03:55] - Transponder - 1200
[03:56] - Engine 1 Started
[03:56] - Engine 2 Started
[04:03] - Taxi Lights ON 7AGL
[04:03] - Wing Lights ON 7AGL
[04:03] - Recognition Lights ON 7AGL
[04:04] - Pushing Back from the gate
[04:04] - Parking Brake Released
[04:06] - COM1 - 122.80
[04:08] - Taxiing to Runway
[04:09] - Landing Lights ON 7AGL
[04:09] - Taxi Lights OFF 7AGL
[04:09] - Strobe Lights ON 7AGL
[04:09] - Flaps to position 1
[04:09] - Taking Off with 8 passengers on board
[04:10] - Take off at 123kts, with a pitch of 5deg and 3620lbs of fuel on board
[04:10] - Wind Heading 0 | Wind Speed 0kts | Temperature 13 deg C
[04:10] - METAR Departure: EPRZ 080130Z 25010KT 9999 FEW038 13/09 Q1014

[04:10] - Flaps to position 0 at 735ft and 130kts
[04:10] - AutoPilot Engaged at 486AGL
[04:10] - Climbing to TOC
[04:10] - Gear up at 692AGL
[04:14] - Landing Lights OFF 5656AGL
[04:25] - TOC reached
[04:25] - Cruise started
[04:26] - NAV1 - 110.30
[05:24] - TOD reached
[05:24] - Descending to destination
[05:28] - Landing Lights ON 9095AGL
[05:30] - Landing Shortly
[05:34] - Gear down at 2428AGL
[05:34] - Flaps to position 1 at 2201ft and 179kts
[05:36] - AutoPilot Disengaged at 220AGL
[05:37] - Landed at -443fpm. With 2745lbs of fuel onboard and a pitch angle of 7deg.
[05:37] - Wind Heading 160 | Wind Speed 4kts | Temperature 11 deg C
[05:37] - METAR Arrival: EPGD 080300Z 17003KT 9999 SCT004 OVC008 11/11 Q1006

[05:38] - Taxiing to Gate
[05:38] - Landing Lights OFF 3AGL
[05:38] - Taxi Lights ON 3AGL
[05:38] - Flaps to position 0
[05:39] - Parking Brake Applied
[05:39] - Arrived safely at EPGD. We hope you enjoyed your flight!
[05:39] - Strobe Lights OFF 3AGL
[05:39] - Recognition Lights OFF 3AGL
[05:39] - Navigation Lights OFF 3AGL
[05:40] - Taxi Lights OFF 3AGL
[05:40] - Wing Lights OFF 3AGL
[05:40] - Engine 1 Stopped
[05:40] - Engine 2 Stopped
[05:41] - CARENADO B350i King Air 5003
[05:41] - MaxSim Rate: 1x
[05:41] - SiouxAcars ver: 1.0.1.2

Route Map